sensor_id;sensor_type;location;lat;lon;timestamp;temperature;humidity
62476;DHT22;50739;45.670;11.936;2023-03-23T00:03:17;12.68;78.85
62476;DHT22;50739;45.670;11.936;2023-03-23T00:08:21;12.48;79.49
62476;DHT22;50739;45.670;11.936;2023-03-23T00:13:23;12.57;79.31
62476;DHT22;50739;45.670;11.936;2023-03-23T00:18:27;12.58;79.14
62476;DHT22;50739;45.670;11.936;2023-03-23T00:23:29;12.51;79.35
62476;DHT22;50739;45.670;11.936;2023-03-23T00:28:31;12.38;79.63
62476;DHT22;50739;45.670;11.936;2023-03-23T00:33:36;12.36;79.37
62476;DHT22;50739;45.670;11.936;2023-03-23T00:38:41;12.37;79.43
62476;DHT22;50739;45.670;11.936;2023-03-23T00:43:44;12.22;79.71
62476;DHT22;50739;45.670;11.936;2023-03-23T00:48:48;12.30;79.49
62476;DHT22;50739;45.670;11.936;2023-03-23T00:53:51;12.19;80.12
62476;DHT22;50739;45.670;11.936;2023-03-23T00:58:53;12.14;80.13
62476;DHT22;50739;45.670;11.936;2023-03-23T01:03:57;12.10;80.49
62476;DHT22;50739;45.670;11.936;2023-03-23T01:09:02;12.05;80.49
62476;DHT22;50739;45.670;11.936;2023-03-23T01:14:04;11.95;81.01
62476;DHT22;50739;45.670;11.936;2023-03-23T01:19:08;12.00;80.13
62476;DHT22;50739;45.670;11.936;2023-03-23T01:24:09;11.96;79.84
62476;DHT22;50739;45.670;11.936;2023-03-23T01:29:11;11.89;80.39
62476;DHT22;50739;45.670;11.936;2023-03-23T01:34:15;11.81;80.21
62476;DHT22;50739;45.670;11.936;2023-03-23T01:39:17;11.76;80.29
62476;DHT22;50739;45.670;11.936;2023-03-23T01:49:59;11.81;79.81
62476;DHT22;50739;45.670;11.936;2023-03-23T01:55:02;11.99;79.18
62476;DHT22;50739;45.670;11.936;2023-03-23T02:00:07;11.95;79.03
62476;DHT22;50739;45.670;11.936;2023-03-23T02:05:22;11.61;80.23
62476;DHT22;50739;45.670;11.936;2023-03-23T02:10:25;11.48;80.79
62476;DHT22;50739;45.670;11.936;2023-03-23T02:15:33;11.44;81.04
62476;DHT22;50739;45.670;11.936;2023-03-23T02:20:52;11.45;81.22
62476;DHT22;50739;45.670;11.936;2023-03-23T02:26:14;11.48;81.35
62476;DHT22;50739;45.670;11.936;2023-03-23T02:31:40;11.52;80.39
62476;DHT22;50739;45.670;11.936;2023-03-23T02:36:49;11.55;80.55
62476;DHT22;50739;45.670;11.936;2023-03-23T02:41:54;11.38;81.24
62476;DHT22;50739;45.670;11.936;2023-03-23T02:46:59;11.24;81.35
62476;DHT22;50739;45.670;11.936;2023-03-23T02:52:07;11.27;81.25
62476;DHT22;50739;45.670;11.936;2023-03-23T02:57:12;11.21;81.34
62476;DHT22;50739;45.670;11.936;2023-03-23T03:02:16;11.03;81.13
62476;DHT22;50739;45.670;11.936;2023-03-23T03:07:59;10.84;81.79
62476;DHT22;50739;45.670;11.936;2023-03-23T03:13:08;10.92;81.44
62476;DHT22;50739;45.670;11.936;2023-03-23T03:18:16;11.04;81.38
62476;DHT22;50739;45.670;11.936;2023-03-23T03:23:22;10.95;81.82
62476;DHT22;50739;45.670;11.936;2023-03-23T03:28:25;10.84;81.82
62476;DHT22;50739;45.670;11.936;2023-03-23T03:33:28;10.77;81.72
62476;DHT22;50739;45.670;11.936;2023-03-23T03:38:41;10.73;82.35
62476;DHT22;50739;45.670;11.936;2023-03-23T03:43:43;10.89;82.05
62476;DHT22;50739;45.670;11.936;2023-03-23T03:48:45;10.82;82.61
62476;DHT22;50739;45.670;11.936;2023-03-23T03:53:48;10.80;82.50
62476;DHT22;50739;45.670;11.936;2023-03-23T03:58:50;10.88;82.48
62476;DHT22;50739;45.670;11.936;2023-03-23T04:03:52;10.83;82.42
62476;DHT22;50739;45.670;11.936;2023-03-23T04:08:56;10.79;82.91
62476;DHT22;50739;45.670;11.936;2023-03-23T04:13:59;10.80;82.89
62476;DHT22;50739;45.670;11.936;2023-03-23T04:19:01;10.76;83.11
62476;DHT22;50739;45.670;11.936;2023-03-23T04:24:06;10.84;82.99
62476;DHT22;50739;45.670;11.936;2023-03-23T04:29:08;10.83;83.13
62476;DHT22;50739;45.670;11.936;2023-03-23T04:34:10;10.71;83.54
62476;DHT22;50739;45.670;11.936;2023-03-23T04:39:15;10.71;83.65
62476;DHT22;50739;45.670;11.936;2023-03-23T04:44:17;10.80;83.28
62476;DHT22;50739;45.670;11.936;2023-03-23T04:49:21;10.82;83.20
62476;DHT22;50739;45.670;11.936;2023-03-23T04:54:24;10.84;83.38
62476;DHT22;50739;45.670;11.936;2023-03-23T04:59:29;10.93;82.69
62476;DHT22;50739;45.670;11.936;2023-03-23T05:04:31;10.73;83.09
62476;DHT22;50739;45.670;11.936;2023-03-23T05:09:35;10.55;83.64
62476;DHT22;50739;45.670;11.936;2023-03-23T05:14:40;10.62;83.41
62476;DHT22;50739;45.670;11.936;2023-03-23T05:19:42;10.69;83.32
62476;DHT22;50739;45.670;11.936;2023-03-23T05:24:49;10.68;83.61
62476;DHT22;50739;45.670;11.936;2023-03-23T05:29:52;10.77;83.54
62476;DHT22;50739;45.670;11.936;2023-03-23T05:34:55;10.92;83.04
62476;DHT22;50739;45.670;11.936;2023-03-23T05:39:59;10.84;83.19
62476;DHT22;50739;45.670;11.936;2023-03-23T05:45:06;10.88;83.15
62476;DHT22;50739;45.670;11.936;2023-03-23T05:50:09;10.77;83.64
62476;DHT22;50739;45.670;11.936;2023-03-23T05:55:14;10.95;83.12
62476;DHT22;50739;45.670;11.936;2023-03-23T06:00:16;10.95;83.07
62476;DHT22;50739;45.670;11.936;2023-03-23T06:05:23;10.93;83.35
62476;DHT22;50739;45.670;11.936;2023-03-23T06:10:27;10.93;83.47
62476;DHT22;50739;45.670;11.936;2023-03-23T06:15:31;11.09;83.29
62476;DHT22;50739;45.670;11.936;2023-03-23T06:20:33;11.20;82.77
62476;DHT22;50739;45.670;11.936;2023-03-23T06:25:37;11.35;82.51
62476;DHT22;50739;45.670;11.936;2023-03-23T06:30:40;11.30;82.76
62476;DHT22;50739;45.670;11.936;2023-03-23T06:35:43;11.40;82.74
62476;DHT22;50739;45.670;11.936;2023-03-23T06:40:46;11.57;82.02
62476;DHT22;50739;45.670;11.936;2023-03-23T06:45:48;11.95;80.77
62476;DHT22;50739;45.670;11.936;2023-03-23T06:50:50;11.83;81.80
62476;DHT22;50739;45.670;11.936;2023-03-23T06:55:53;11.99;81.53
62476;DHT22;50739;45.670;11.936;2023-03-23T07:00:55;12.02;81.92
62476;DHT22;50739;45.670;11.936;2023-03-23T07:05:58;12.14;81.70
62476;DHT22;50739;45.670;11.936;2023-03-23T07:11:02;12.44;80.95
62476;DHT22;50739;45.670;11.936;2023-03-23T07:16:05;12.52;81.21
62476;DHT22;50739;45.670;11.936;2023-03-23T07:21:07;12.69;81.15
62476;DHT22;50739;45.670;11.936;2023-03-23T07:26:11;12.95;80.18
62476;DHT22;50739;45.670;11.936;2023-03-23T07:31:13;13.06;80.49
62476;DHT22;50739;45.670;11.936;2023-03-23T07:36:16;13.16;80.46
62476;DHT22;50739;45.670;11.936;2023-03-23T07:41:19;13.17;80.73
62476;DHT22;50739;45.670;11.936;2023-03-23T07:46:21;13.43;79.85
62476;DHT22;50739;45.670;11.936;2023-03-23T07:51:23;13.48;79.64
62476;DHT22;50739;45.670;11.936;2023-03-23T07:56:27;13.75;79.19
62476;DHT22;50739;45.670;11.936;2023-03-23T08:01:29;13.89;79.33
62476;DHT22;50739;45.670;11.936;2023-03-23T08:06:33;13.94;79.10
62476;DHT22;50739;45.670;11.936;2023-03-23T08:11:37;14.23;78.39
62476;DHT22;50739;45.670;11.936;2023-03-23T08:16:40;14.36;78.20
62476;DHT22;50739;45.670;11.936;2023-03-23T08:21:42;14.41;77.57
62476;DHT22;50739;45.670;11.936;2023-03-23T08:26:46;14.51;77.41
62476;DHT22;50739;45.670;11.936;2023-03-23T08:31:49;14.50;77.41
62476;DHT22;50739;45.670;11.936;2023-03-23T08:36:52;14.57;77.22
62476;DHT22;50739;45.670;11.936;2023-03-23T08:41:57;14.67;77.35
62476;DHT22;50739;45.670;11.936;2023-03-23T08:46:59;14.78;77.66
62476;DHT22;50739;45.670;11.936;2023-03-23T08:52:04;14.88;76.95
62476;DHT22;50739;45.670;11.936;2023-03-23T08:57:07;14.88;76.56
62476;DHT22;50739;45.670;11.936;2023-03-23T09:02:10;15.02;74.00
62476;DHT22;50739;45.670;11.936;2023-03-23T09:07:13;14.99;74.55
62476;DHT22;50739;45.670;11.936;2023-03-23T09:12:17;14.99;75.02
62476;DHT22;50739;45.670;11.936;2023-03-23T09:17:19;15.13;74.58
62476;DHT22;50739;45.670;11.936;2023-03-23T09:22:20;15.38;74.81
62476;DHT22;50739;45.670;11.936;2023-03-23T09:27:25;15.63;73.35
62476;DHT22;50739;45.670;11.936;2023-03-23T09:32:27;15.74;72.83
62476;DHT22;50739;45.670;11.936;2023-03-23T09:37:30;15.83;72.38
62476;DHT22;50739;45.670;11.936;2023-03-23T09:42:41;15.84;72.04
62476;DHT22;50739;45.670;11.936;2023-03-23T09:47:55;15.86;71.79
62476;DHT22;50739;45.670;11.936;2023-03-23T09:53:01;15.93;71.90
62476;DHT22;50739;45.670;11.936;2023-03-23T09:58:10;16.02;70.64
62476;DHT22;50739;45.670;11.936;2023-03-23T10:03:14;16.30;68.68
62476;DHT22;50739;45.670;11.936;2023-03-23T10:08:19;16.48;67.63
62476;DHT22;50739;45.670;11.936;2023-03-23T10:13:32;16.63;64.85
62476;DHT22;50739;45.670;11.936;2023-03-23T10:18:40;16.79;62.83
62476;DHT22;50739;45.670;11.936;2023-03-23T10:23:52;16.95;64.58
62476;DHT22;50739;45.670;11.936;2023-03-23T10:29:01;16.97;64.09
62476;DHT22;50739;45.670;11.936;2023-03-23T10:34:09;17.11;61.57
62476;DHT22;50739;45.670;11.936;2023-03-23T10:39:16;17.12;63.04
62476;DHT22;50739;45.670;11.936;2023-03-23T10:44:22;17.17;61.52
62476;DHT22;50739;45.670;11.936;2023-03-23T10:49:29;17.35;61.79
62476;DHT22;50739;45.670;11.936;2023-03-23T10:54:36;17.35;60.77
62476;DHT22;50739;45.670;11.936;2023-03-23T10:59:41;17.61;62.34
62476;DHT22;50739;45.670;11.936;2023-03-23T11:04:46;18.00;59.40
62476;DHT22;50739;45.670;11.936;2023-03-23T11:09:53;17.79;61.70
62476;DHT22;50739;45.670;11.936;2023-03-23T11:15:21;18.01;61.97
62476;DHT22;50739;45.670;11.936;2023-03-23T11:20:25;18.15;62.42
62476;DHT22;50739;45.670;11.936;2023-03-23T11:25:28;18.39;60.00
62476;DHT22;50739;45.670;11.936;2023-03-23T11:30:32;18.52;59.42
62476;DHT22;50739;45.670;11.936;2023-03-23T11:35:34;18.48;60.75
62476;DHT22;50739;45.670;11.936;2023-03-23T11:40:44;18.56;60.49
62476;DHT22;50739;45.670;11.936;2023-03-23T11:45:56;18.51;59.22
62476;DHT22;50739;45.670;11.936;2023-03-23T11:51:01;18.59;60.66
62476;DHT22;50739;45.670;11.936;2023-03-23T11:56:11;18.84;59.78
62476;DHT22;50739;45.670;11.936;2023-03-23T12:01:26;19.21;59.44
62476;DHT22;50739;45.670;11.936;2023-03-23T12:06:36;19.20;58.24
62476;DHT22;50739;45.670;11.936;2023-03-23T12:11:49;19.28;58.07
62476;DHT22;50739;45.670;11.936;2023-03-23T12:17:05;19.14;57.70
62476;DHT22;50739;45.670;11.936;2023-03-23T12:22:21;19.02;58.22
62476;DHT22;50739;45.670;11.936;2023-03-23T12:27:31;19.07;59.00
62476;DHT22;50739;45.670;11.936;2023-03-23T12:32:47;19.20;57.78
62476;DHT22;50739;45.670;11.936;2023-03-23T12:37:59;19.32;56.59
62476;DHT22;50739;45.670;11.936;2023-03-23T12:43:13;19.55;55.59
62476;DHT22;50739;45.670;11.936;2023-03-23T12:48:20;19.59;55.96
62476;DHT22;50739;45.670;11.936;2023-03-23T12:53:28;19.57;55.32
62476;DHT22;50739;45.670;11.936;2023-03-23T12:58:36;19.45;55.60
62476;DHT22;50739;45.670;11.936;2023-03-23T13:03:45;19.80;57.02
62476;DHT22;50739;45.670;11.936;2023-03-23T13:08:53;20.59;56.02
62476;DHT22;50739;45.670;11.936;2023-03-23T13:14:02;21.06;55.44
62476;DHT22;50739;45.670;11.936;2023-03-23T13:19:12;21.33;54.16
62476;DHT22;50739;45.670;11.936;2023-03-23T13:24:19;21.16;54.13
62476;DHT22;50739;45.670;11.936;2023-03-23T13:29:22;21.23;54.18
62476;DHT22;50739;45.670;11.936;2023-03-23T13:34:31;21.37;53.72
62476;DHT22;50739;45.670;11.936;2023-03-23T13:39:36;21.61;53.36
62476;DHT22;50739;45.670;11.936;2023-03-23T13:44:43;21.26;54.06
62476;DHT22;50739;45.670;11.936;2023-03-23T13:49:51;21.85;54.26
62476;DHT22;50739;45.670;11.936;2023-03-23T13:55:20;21.99;50.94
62476;DHT22;50739;45.670;11.936;2023-03-23T14:00:46;22.14;50.59
62476;DHT22;50739;45.670;11.936;2023-03-23T14:05:51;22.03;51.54
62476;DHT22;50739;45.670;11.936;2023-03-23T14:10:55;21.47;54.04
62476;DHT22;50739;45.670;11.936;2023-03-23T14:16:04;21.61;54.31
62476;DHT22;50739;45.670;11.936;2023-03-23T14:21:14;21.31;54.00
62476;DHT22;50739;45.670;11.936;2023-03-23T14:26:19;20.82;54.76
62476;DHT22;50739;45.670;11.936;2023-03-23T14:31:23;21.24;54.68
62476;DHT22;50739;45.670;11.936;2023-03-23T14:36:28;21.66;53.42
62476;DHT22;50739;45.670;11.936;2023-03-23T14:41:30;22.21;52.13
62476;DHT22;50739;45.670;11.936;2023-03-23T14:46:32;22.69;51.32
62476;DHT22;50739;45.670;11.936;2023-03-23T14:51:36;22.39;52.20
62476;DHT22;50739;45.670;11.936;2023-03-23T14:56:39;22.57;52.15
62476;DHT22;50739;45.670;11.936;2023-03-23T15:01:46;22.90;52.00
62476;DHT22;50739;45.670;11.936;2023-03-23T15:06:54;23.18;51.13
62476;DHT22;50739;45.670;11.936;2023-03-23T15:11:59;23.29;50.92
62476;DHT22;50739;45.670;11.936;2023-03-23T15:17:01;23.38;50.55
62476;DHT22;50739;45.670;11.936;2023-03-23T15:22:07;23.26;50.25
62476;DHT22;50739;45.670;11.936;2023-03-23T15:27:17;23.18;51.45
62476;DHT22;50739;45.670;11.936;2023-03-23T15:32:27;23.38;50.92
62476;DHT22;50739;45.670;11.936;2023-03-23T15:37:31;23.02;51.60
62476;DHT22;50739;45.670;11.936;2023-03-23T15:42:34;23.19;51.28
62476;DHT22;50739;45.670;11.936;2023-03-23T15:47:43;23.02;51.41
62476;DHT22;50739;45.670;11.936;2023-03-23T15:52:47;23.39;51.72
62476;DHT22;50739;45.670;11.936;2023-03-23T15:57:52;23.50;51.54
62476;DHT22;50739;45.670;11.936;2023-03-23T16:02:56;23.32;51.69
62476;DHT22;50739;45.670;11.936;2023-03-23T16:08:00;23.09;51.96
62476;DHT22;50739;45.670;11.936;2023-03-23T16:13:02;22.90;51.63
62476;DHT22;50739;45.670;11.936;2023-03-23T16:18:06;22.94;51.33
62476;DHT22;50739;45.670;11.936;2023-03-23T16:23:09;22.58;52.22
62476;DHT22;50739;45.670;11.936;2023-03-23T16:28:12;21.95;53.03
62476;DHT22;50739;45.670;11.936;2023-03-23T16:33:14;21.22;55.42
62476;DHT22;50739;45.670;11.936;2023-03-23T16:38:18;20.72;56.05
62476;DHT22;50739;45.670;11.936;2023-03-23T16:43:20;20.38;57.40
62476;DHT22;50739;45.670;11.936;2023-03-23T16:48:23;20.21;57.42
62476;DHT22;50739;45.670;11.936;2023-03-23T16:53:27;20.12;57.80
62476;DHT22;50739;45.670;11.936;2023-03-23T16:58:29;19.94;58.51
62476;DHT22;50739;45.670;11.936;2023-03-23T17:03:32;19.75;59.30
62476;DHT22;50739;45.670;11.936;2023-03-23T17:08:35;19.52;60.07
62476;DHT22;50739;45.670;11.936;2023-03-23T17:13:38;19.34;60.82
62476;DHT22;50739;45.670;11.936;2023-03-23T17:18:40;19.07;61.84
62476;DHT22;50739;45.670;11.936;2023-03-23T17:23:43;18.94;62.41
62476;DHT22;50739;45.670;11.936;2023-03-23T17:28:45;18.83;62.88
62476;DHT22;50739;45.670;11.936;2023-03-23T17:33:46;18.52;63.80
62476;DHT22;50739;45.670;11.936;2023-03-23T17:38:50;18.39;64.38
62476;DHT22;50739;45.670;11.936;2023-03-23T17:43:52;18.20;65.01
62476;DHT22;50739;45.670;11.936;2023-03-23T17:48:54;18.04;65.68
62476;DHT22;50739;45.670;11.936;2023-03-23T17:53:57;17.98;65.48
62476;DHT22;50739;45.670;11.936;2023-03-23T17:58:59;17.82;65.91
62476;DHT22;50739;45.670;11.936;2023-03-23T18:04:01;17.47;66.98
62476;DHT22;50739;45.670;11.936;2023-03-23T18:09:05;17.35;67.26
62476;DHT22;50739;45.670;11.936;2023-03-23T18:14:07;17.14;67.62
62476;DHT22;50739;45.670;11.936;2023-03-23T18:19:09;17.12;67.77
62476;DHT22;50739;45.670;11.936;2023-03-23T18:24:12;17.08;68.28
62476;DHT22;50739;45.670;11.936;2023-03-23T18:29:15;16.85;69.09
62476;DHT22;50739;45.670;11.936;2023-03-23T18:34:16;16.73;69.76
62476;DHT22;50739;45.670;11.936;2023-03-23T18:39:20;16.53;70.65
62476;DHT22;50739;45.670;11.936;2023-03-23T18:44:21;16.53;71.06
62476;DHT22;50739;45.670;11.936;2023-03-23T18:49:23;16.35;70.96
62476;DHT22;50739;45.670;11.936;2023-03-23T18:54:27;16.26;71.13
62476;DHT22;50739;45.670;11.936;2023-03-23T18:59:29;16.16;71.68
62476;DHT22;50739;45.670;11.936;2023-03-23T19:04:33;16.14;71.94
62476;DHT22;50739;45.670;11.936;2023-03-23T19:09:37;16.09;72.23
62476;DHT22;50739;45.670;11.936;2023-03-23T19:14:40;15.87;72.91
62476;DHT22;50739;45.670;11.936;2023-03-23T19:19:42;15.93;72.54
62476;DHT22;50739;45.670;11.936;2023-03-23T19:24:46;15.88;72.94
62476;DHT22;50739;45.670;11.936;2023-03-23T19:29:48;15.81;73.57
62476;DHT22;50739;45.670;11.936;2023-03-23T19:34:50;15.80;73.51
62476;DHT22;50739;45.670;11.936;2023-03-23T19:39:53;15.68;73.90
62476;DHT22;50739;45.670;11.936;2023-03-23T19:44:55;15.61;74.11
62476;DHT22;50739;45.670;11.936;2023-03-23T19:49:57;15.60;74.39
62476;DHT22;50739;45.670;11.936;2023-03-23T19:55:01;15.54;74.72
62476;DHT22;50739;45.670;11.936;2023-03-23T20:00:04;15.61;74.56
62476;DHT22;50739;45.670;11.936;2023-03-23T20:05:07;15.47;74.85
62476;DHT22;50739;45.670;11.936;2023-03-23T20:10:11;15.29;75.34
62476;DHT22;50739;45.670;11.936;2023-03-23T20:15:12;15.03;76.46
62476;DHT22;50739;45.670;11.936;2023-03-23T20:20:15;14.95;76.54
62476;DHT22;50739;45.670;11.936;2023-03-23T20:25:18;15.05;76.40
62476;DHT22;50739;45.670;11.936;2023-03-23T20:30:21;14.92;76.82
62476;DHT22;50739;45.670;11.936;2023-03-23T20:35:23;14.74;77.14
62476;DHT22;50739;45.670;11.936;2023-03-23T20:40:26;14.64;77.71
62476;DHT22;50739;45.670;11.936;2023-03-23T20:45:28;14.70;77.43
62476;DHT22;50739;45.670;11.936;2023-03-23T20:50:31;14.84;76.79
62476;DHT22;50739;45.670;11.936;2023-03-23T20:55:34;14.65;77.37
62476;DHT22;50739;45.670;11.936;2023-03-23T21:00:38;14.61;78.04
62476;DHT22;50739;45.670;11.936;2023-03-23T21:05:41;14.39;78.60
62476;DHT22;50739;45.670;11.936;2023-03-23T21:10:45;14.46;78.55
62476;DHT22;50739;45.670;11.936;2023-03-23T21:15:47;14.40;79.09
62476;DHT22;50739;45.670;11.936;2023-03-23T21:20:49;14.39;79.53
62476;DHT22;50739;45.670;11.936;2023-03-23T21:25:52;14.43;79.05
62476;DHT22;50739;45.670;11.936;2023-03-23T21:30:58;14.15;80.06
62476;DHT22;50739;45.670;11.936;2023-03-23T21:36:00;14.15;80.10
62476;DHT22;50739;45.670;11.936;2023-03-23T21:41:07;14.05;80.69
62476;DHT22;50739;45.670;11.936;2023-03-23T21:46:11;14.05;80.43
62476;DHT22;50739;45.670;11.936;2023-03-23T21:51:20;14.13;80.33
62476;DHT22;50739;45.670;11.936;2023-03-23T21:56:25;14.09;80.43
62476;DHT22;50739;45.670;11.936;2023-03-23T22:01:27;13.97;80.51
62476;DHT22;50739;45.670;11.936;2023-03-23T22:06:30;13.86;80.82
62476;DHT22;50739;45.670;11.936;2023-03-23T22:11:36;13.81;80.96
62476;DHT22;50739;45.670;11.936;2023-03-23T22:16:38;13.77;81.12
62476;DHT22;50739;45.670;11.936;2023-03-23T22:21:40;13.68;81.19
62476;DHT22;50739;45.670;11.936;2023-03-23T22:26:44;13.68;80.74
62476;DHT22;50739;45.670;11.936;2023-03-23T22:31:46;13.63;80.61
62476;DHT22;50739;45.670;11.936;2023-03-23T22:36:48;13.64;80.26
62476;DHT22;50739;45.670;11.936;2023-03-23T22:41:52;13.58;80.15
62476;DHT22;50739;45.670;11.936;2023-03-23T22:46:54;13.61;80.09
62476;DHT22;50739;45.670;11.936;2023-03-23T22:51:56;13.51;80.38
62476;DHT22;50739;45.670;11.936;2023-03-23T22:57:00;13.50;79.82
62476;DHT22;50739;45.670;11.936;2023-03-23T23:02:01;13.34;80.24
62476;DHT22;50739;45.670;11.936;2023-03-23T23:07:03;13.33;80.42
62476;DHT22;50739;45.670;11.936;2023-03-23T23:12:07;13.32;80.38
62476;DHT22;50739;45.670;11.936;2023-03-23T23:17:10;13.27;80.28
62476;DHT22;50739;45.670;11.936;2023-03-23T23:22:12;13.34;80.47
62476;DHT22;50739;45.670;11.936;2023-03-23T23:27:15;13.34;80.03
62476;DHT22;50739;45.670;11.936;2023-03-23T23:32:17;13.24;80.36
62476;DHT22;50739;45.670;11.936;2023-03-23T23:37:20;13.13;80.89
62476;DHT22;50739;45.670;11.936;2023-03-23T23:42:24;13.06;81.06
62476;DHT22;50739;45.670;11.936;2023-03-23T23:47:26;13.02;81.47
62476;DHT22;50739;45.670;11.936;2023-03-23T23:52:28;13.05;80.92
62476;DHT22;50739;45.670;11.936;2023-03-23T23:57:31;13.15;80.52
